Watauga, Tennessee
Current Conditions -  °F | °C
As of 1:35 AM on Wednesday 28 Jan 2015 (Local Time) from K0A9 Reporting Station
Clear Clear  
Wind Chill: -6°   Ceiling: Unl
Heat Index: -6°   Visibility: 10mi
Dew Point: -11°   Wind: 0mph
Humidity: 68%   Direction: NA
Pressure: 30.13"   Gusts: NA
Location:  36.37°N, 82.3°W
Report Text: K0A9 280635Z AUTO 00000KT 10SM CLR M06/M11 A3013 RMK
Loading
Personal Weather Stations






























Interactive Weather Map New forecast layout! Learn more

10-Day Weather Forecast

Advertisements
Track Severe Weather on mobile